createdAt,value
2018-03-28T00:01:42.569Z,9.60
2018-03-28T00:04:10.800Z,9.60
2018-03-28T00:06:39.236Z,9.60
2018-03-28T00:11:38.077Z,9.60
2018-03-28T00:14:07.420Z,9.70
2018-03-28T00:19:05.119Z,9.70
2018-03-28T00:21:33.388Z,9.80
2018-03-28T00:24:01.617Z,9.80
2018-03-28T00:26:29.853Z,9.80
2018-03-28T00:28:59.131Z,9.80
2018-03-28T00:31:28.500Z,9.80
2018-03-28T00:33:57.873Z,9.90
2018-03-28T00:36:26.569Z,9.90
2018-03-28T00:38:54.804Z,9.90
2018-03-28T00:41:23.032Z,9.90
2018-03-28T00:43:52.676Z,10.00
2018-03-28T00:46:20.922Z,10.00
2018-03-28T00:48:49.157Z,10.00
2018-03-28T00:51:29.744Z,10.10
2018-03-28T00:53:57.979Z,10.10
2018-03-28T00:56:26.980Z,10.10
2018-03-28T00:58:56.428Z,10.10
2018-03-28T01:01:25.063Z,10.10
2018-03-28T01:03:53.309Z,10.10
2018-03-28T01:06:22.032Z,10.10
2018-03-28T01:08:51.404Z,10.20
2018-03-28T01:11:19.670Z,10.20
2018-03-28T01:13:48.723Z,10.20
2018-03-28T01:16:16.957Z,10.20
2018-03-28T01:18:46.709Z,10.20
2018-03-28T01:21:15.341Z,10.20
2018-03-28T01:23:43.976Z,10.20
2018-03-28T01:26:12.212Z,10.20
2018-03-28T01:28:40.511Z,10.20
2018-03-28T01:31:08.748Z,10.20
2018-03-28T01:33:37.752Z,10.20
2018-03-28T01:36:06.805Z,10.20
2018-03-28T01:38:35.052Z,10.20
2018-03-28T01:41:03.304Z,10.20
2018-03-28T01:43:32.108Z,10.20
2018-03-28T01:46:01.108Z,10.20
2018-03-28T01:48:30.112Z,10.30
2018-03-28T01:50:58.516Z,10.30
2018-03-28T01:53:27.520Z,10.20
2018-03-28T01:55:56.144Z,10.20
2018-03-28T01:58:27.810Z,10.30
2018-03-28T02:00:56.053Z,10.30
2018-03-28T02:03:28.783Z,10.30
2018-03-28T02:05:57.023Z,10.20
2018-03-28T02:08:25.284Z,10.20
2018-03-28T02:10:54.760Z,10.20
2018-03-28T02:13:23.008Z,10.30
2018-03-28T02:15:51.249Z,10.20
2018-03-28T02:18:19.620Z,10.20
2018-03-28T02:20:47.856Z,10.20
2018-03-28T02:23:17.609Z,10.30
2018-03-28T02:25:45.887Z,10.30
2018-03-28T02:28:14.112Z,10.30
2018-03-28T02:30:42.363Z,10.30
2018-03-28T02:33:11.777Z,10.30
2018-03-28T02:35:41.511Z,10.30
2018-03-28T02:38:09.748Z,10.30
2018-03-28T02:40:38.331Z,10.30
2018-03-28T02:43:06.556Z,10.30
2018-03-28T02:45:35.927Z,10.30
2018-03-28T02:48:08.226Z,10.30
2018-03-28T02:50:37.234Z,10.30
2018-03-28T02:53:06.981Z,10.30
2018-03-28T02:55:36.736Z,10.30
2018-03-28T02:58:05.368Z,10.30
2018-03-28T03:00:33.606Z,10.30
2018-03-28T03:03:03.393Z,10.30
2018-03-28T03:05:31.631Z,10.30
2018-03-28T03:07:59.873Z,10.20
2018-03-28T03:10:28.908Z,10.20
2018-03-28T03:12:57.149Z,10.20
2018-03-28T03:15:25.380Z,10.20
2018-03-28T03:17:54.445Z,10.20
2018-03-28T03:20:23.454Z,10.20
2018-03-28T03:22:51.689Z,10.20
2018-03-28T03:25:20.412Z,10.20
2018-03-28T03:27:48.698Z,10.20
2018-03-28T03:32:46.396Z,10.20
2018-03-28T03:35:14.644Z,10.20
2018-03-28T03:37:42.895Z,10.20
2018-03-28T03:40:12.625Z,10.20
2018-03-28T03:42:41.624Z,10.20
2018-03-28T03:45:10.624Z,10.20
2018-03-28T03:47:39.760Z,10.20
2018-03-28T03:50:09.508Z,10.20
2018-03-28T03:52:38.911Z,10.20
2018-03-28T03:55:07.153Z,10.20
2018-03-28T03:57:35.401Z,10.20
2018-03-28T04:00:03.856Z,10.20
2018-03-28T04:05:01.571Z,10.20
2018-03-28T04:07:30.102Z,10.20
2018-03-28T04:09:58.333Z,10.20
2018-03-28T04:12:26.573Z,10.20
2018-03-28T04:14:57.106Z,10.20
2018-03-28T04:17:26.861Z,10.20
2018-03-28T04:19:55.912Z,10.20
2018-03-28T04:22:24.739Z,10.20
2018-03-28T04:24:53.379Z,10.20
2018-03-28T04:27:22.372Z,10.10
2018-03-28T04:29:50.859Z,10.10
2018-03-28T04:32:19.096Z,10.10
2018-03-28T04:34:48.095Z,10.10
2018-03-28T04:37:18.216Z,10.10
2018-03-28T04:39:46.840Z,10.20
2018-03-28T04:42:15.076Z,10.10
2018-03-28T04:44:43.748Z,10.10
2018-03-28T04:47:11.980Z,10.10
2018-03-28T04:49:40.221Z,10.10
2018-03-28T04:52:08.490Z,10.00
2018-03-28T04:54:36.724Z,10.00
2018-03-28T04:57:04.965Z,10.00
2018-03-28T04:59:34.073Z,10.00
2018-03-28T05:02:02.277Z,10.00
2018-03-28T05:04:30.513Z,10.00
2018-03-28T05:06:58.981Z,9.90
2018-03-28T05:09:27.220Z,10.00
2018-03-28T05:11:56.232Z,10.00
2018-03-28T05:14:24.507Z,10.00
2018-03-28T05:16:52.757Z,10.00
2018-03-28T05:19:20.996Z,10.00
2018-03-28T05:21:52.864Z,10.00
2018-03-28T05:24:21.873Z,10.00
2018-03-28T05:26:50.104Z,10.00
2018-03-28T05:29:18.612Z,10.00
2018-03-28T05:34:16.309Z,10.00
2018-03-28T05:36:44.584Z,10.00
2018-03-28T05:39:13.592Z,10.00
2018-03-28T05:41:41.837Z,10.10
2018-03-28T05:44:10.216Z,10.10
2018-03-28T05:46:38.456Z,10.00
2018-03-28T05:49:08.200Z,10.00
2018-03-28T05:51:36.707Z,10.00
2018-03-28T05:54:04.948Z,10.00
2018-03-28T05:56:33.192Z,10.10
2018-03-28T05:59:02.616Z,10.10
2018-03-28T06:01:30.856Z,10.00
2018-03-28T06:03:59.091Z,10.00
2018-03-28T06:06:27.544Z,10.00
2018-03-28T06:08:55.790Z,10.10
2018-03-28T06:11:24.029Z,10.10
2018-03-28T06:13:53.072Z,10.10
2018-03-28T06:16:21.314Z,10.00
2018-03-28T06:18:49.547Z,10.00
2018-03-28T06:21:18.601Z,10.00
2018-03-28T06:23:47.613Z,10.10
2018-03-28T06:26:15.865Z,10.10
2018-03-28T06:28:44.139Z,10.10
2018-03-28T06:31:12.376Z,10.10
2018-03-28T06:33:40.614Z,10.10
2018-03-28T06:36:09.639Z,10.20
2018-03-28T06:38:38.269Z,10.20
2018-03-28T06:41:06.510Z,10.20
2018-03-28T06:43:34.785Z,10.30
2018-03-28T06:46:03.016Z,10.40
2018-03-28T06:48:31.255Z,10.40
2018-03-28T06:51:00.265Z,10.50
2018-03-28T06:53:28.902Z,10.50
2018-03-28T06:55:57.900Z,10.60
2018-03-28T06:58:26.237Z,10.70
2018-03-28T07:00:54.445Z,10.80
2018-03-28T07:03:23.447Z,10.80
2018-03-28T07:05:52.101Z,10.80
2018-03-28T07:08:21.485Z,10.80
2018-03-28T07:10:49.733Z,10.90
2018-03-28T07:13:18.773Z,10.90
2018-03-28T07:18:16.481Z,11.10
2018-03-28T07:20:46.411Z,11.10
2018-03-28T07:23:14.598Z,11.20
2018-03-28T07:25:42.838Z,11.20
2018-03-28T07:28:12.888Z,11.20
2018-03-28T07:30:41.124Z,11.20
2018-03-28T07:33:09.364Z,11.30
2018-03-28T07:35:38.101Z,11.20
2018-03-28T07:38:07.104Z,11.30
2018-03-28T07:40:35.340Z,11.30
2018-03-28T07:43:03.616Z,11.30
2018-03-28T07:45:32.623Z,11.30
2018-03-28T07:48:02.386Z,11.30
2018-03-28T07:50:30.644Z,11.40
2018-03-28T07:53:00.393Z,11.30
2018-03-28T07:55:28.624Z,11.30
2018-03-28T07:57:56.906Z,11.30
2018-03-28T08:00:26.619Z,11.30
2018-03-28T08:02:54.856Z,11.30
2018-03-28T08:05:23.144Z,11.30
2018-03-28T08:07:52.144Z,11.30
2018-03-28T08:10:20.389Z,11.40
2018-03-28T08:12:48.993Z,11.40
2018-03-28T08:15:17.228Z,11.40
2018-03-28T08:17:45.468Z,11.40
2018-03-28T08:20:13.733Z,11.50
2018-03-28T08:22:41.972Z,11.50
2018-03-28T08:25:10.209Z,11.50
2018-03-28T08:27:39.524Z,11.60
2018-03-28T08:30:07.757Z,11.60
2018-03-28T08:32:36.392Z,11.60
2018-03-28T08:35:04.845Z,11.60
2018-03-28T08:40:02.531Z,11.60
2018-03-28T08:42:31.939Z,11.60
2018-03-28T08:45:00.164Z,11.60
2018-03-28T08:47:28.399Z,11.50
2018-03-28T08:49:56.912Z,11.50
2018-03-28T08:52:26.421Z,11.50
2018-03-28T08:54:54.657Z,11.50
2018-03-28T08:57:23.151Z,11.60
2018-03-28T08:59:51.393Z,11.60
2018-03-28T09:02:20.770Z,11.60
2018-03-28T09:04:49.805Z,11.70
2018-03-28T09:07:18.037Z,11.80
2018-03-28T09:09:46.268Z,11.90
2018-03-28T09:12:16.082Z,12.00
2018-03-28T09:14:44.317Z,12.10
2018-03-28T09:17:12.548Z,12.00
2018-03-28T09:19:42.784Z,12.00
2018-03-28T09:22:11.780Z,12.00
2018-03-28T09:24:40.022Z,12.00
2018-03-28T09:27:08.289Z,11.90
2018-03-28T09:29:36.520Z,11.90
2018-03-28T09:32:04.756Z,12.10
2018-03-28T09:34:33.048Z,12.20
2018-03-28T09:37:01.289Z,12.40
2018-03-28T09:39:29.521Z,12.50
2018-03-28T09:41:57.799Z,12.60
2018-03-28T09:44:26.422Z,12.70
2018-03-28T09:46:54.661Z,12.70
2018-03-28T09:49:23.340Z,12.70
2018-03-28T09:51:51.572Z,12.60
2018-03-28T09:54:19.800Z,12.50
2018-03-28T09:56:48.317Z,12.40
2018-03-28T09:59:16.552Z,12.30
2018-03-28T10:01:51.705Z,12.20
2018-03-28T10:04:19.938Z,12.10
2018-03-28T10:06:48.169Z,12.00
2018-03-28T10:09:16.495Z,12.00
2018-03-28T10:11:44.668Z,12.00
2018-03-28T10:14:12.900Z,11.90
2018-03-28T10:16:42.344Z,11.90
2018-03-28T10:19:10.581Z,11.90
2018-03-28T10:21:38.817Z,11.90
2018-03-28T10:24:07.088Z,11.90
2018-03-28T10:26:35.324Z,11.80
2018-03-28T10:29:03.561Z,11.80
2018-03-28T10:31:31.896Z,11.80
2018-03-28T10:34:00.899Z,11.80
2018-03-28T10:36:29.127Z,11.80
2018-03-28T10:38:58.093Z,11.80
2018-03-28T10:41:26.368Z,11.80
2018-03-28T10:43:55.374Z,11.80
2018-03-28T10:46:23.800Z,11.80
2018-03-28T10:48:53.540Z,11.80
2018-03-28T10:51:22.546Z,11.70
2018-03-28T10:53:51.964Z,11.70
2018-03-28T10:56:20.196Z,11.70
2018-03-28T10:58:48.425Z,11.60
2018-03-28T11:01:17.005Z,11.60
2018-03-28T11:03:45.236Z,11.70
2018-03-28T11:06:13.469Z,11.70
2018-03-28T11:08:43.336Z,11.70
2018-03-28T11:13:42.540Z,11.60
2018-03-28T11:16:10.820Z,11.60
2018-03-28T11:18:39.060Z,11.40
2018-03-28T11:21:07.296Z,11.40
2018-03-28T11:23:36.594Z,11.40
2018-03-28T11:26:05.224Z,11.40
2018-03-28T11:28:33.465Z,11.40
2018-03-28T11:31:01.736Z,11.30
2018-03-28T11:33:30.737Z,11.30
2018-03-28T11:36:00.484Z,11.20
2018-03-28T11:38:30.108Z,11.20
2018-03-28T11:40:58.340Z,11.20
2018-03-28T11:43:26.574Z,11.20
2018-03-28T11:45:54.840Z,11.20
2018-03-28T11:48:23.077Z,11.20
2018-03-28T11:50:51.317Z,11.10
2018-03-28T11:53:20.544Z,11.20
2018-03-28T11:55:49.548Z,11.10
2018-03-28T11:58:19.722Z,11.10
2018-03-28T12:00:47.959Z,11.10
2018-03-28T12:03:16.965Z,11.10
2018-03-28T12:05:45.196Z,11.10
2018-03-28T12:08:14.558Z,11.10
2018-03-28T12:10:43.184Z,11.20
2018-03-28T12:13:11.419Z,11.10
2018-03-28T12:15:39.717Z,11.10
2018-03-28T12:18:07.953Z,11.10
2018-03-28T12:20:36.191Z,11.20
2018-03-28T12:25:33.935Z,11.00
2018-03-28T12:28:02.169Z,11.00
2018-03-28T12:30:30.848Z,11.10
2018-03-28T12:32:58.968Z,11.10
2018-03-28T12:35:27.205Z,11.10
2018-03-28T12:37:55.488Z,11.10
2018-03-28T12:40:23.723Z,11.20
2018-03-28T12:42:52.721Z,11.10
2018-03-28T12:45:20.993Z,11.10
2018-03-28T12:47:49.233Z,11.00
2018-03-28T12:50:18.240Z,11.00
2018-03-28T12:52:47.272Z,11.00
2018-03-28T12:55:16.412Z,11.00
2018-03-28T12:57:44.516Z,10.90
2018-03-28T13:00:14.278Z,10.90
2018-03-28T13:02:42.509Z,10.90
2018-03-28T13:05:10.744Z,10.90
2018-03-28T13:07:39.800Z,10.80
2018-03-28T13:10:08.041Z,10.80
2018-03-28T13:12:36.271Z,10.70
2018-03-28T13:15:04.889Z,10.70
2018-03-28T13:17:33.130Z,10.80
2018-03-28T13:20:01.363Z,10.80
2018-03-28T13:22:30.608Z,10.80
2018-03-28T13:24:58.844Z,10.90
2018-03-28T13:27:27.084Z,10.90
2018-03-28T13:29:56.468Z,10.80
2018-03-28T13:32:25.835Z,10.80
2018-03-28T13:34:54.064Z,10.80
2018-03-28T13:37:23.100Z,10.80
2018-03-28T13:39:51.344Z,10.90
2018-03-28T13:42:19.584Z,10.80
2018-03-28T13:44:48.627Z,10.70
2018-03-28T13:47:17.634Z,10.70
2018-03-28T13:49:45.860Z,10.70
2018-03-28T13:52:14.535Z,10.60
2018-03-28T13:54:42.767Z,10.70
2018-03-28T13:57:11.009Z,10.50
2018-03-28T13:59:39.281Z,10.40
2018-03-28T14:02:08.497Z,10.30
2018-03-28T14:04:36.741Z,10.20
2018-03-28T14:09:34.470Z,10.00
2018-03-28T14:14:32.736Z,9.90
2018-03-28T14:17:01.044Z,9.90
2018-03-28T14:19:29.273Z,9.90
2018-03-28T14:21:58.308Z,9.80
2018-03-28T14:24:27.312Z,9.90
2018-03-28T14:26:58.368Z,9.90
2018-03-28T14:29:26.602Z,9.90
2018-03-28T14:31:55.604Z,9.80
2018-03-28T14:34:24.672Z,9.90
2018-03-28T14:36:52.906Z,9.90
2018-03-28T14:39:21.921Z,9.90
2018-03-28T14:41:50.198Z,10.00
2018-03-28T14:44:18.436Z,10.00
2018-03-28T14:46:46.672Z,10.10
2018-03-28T14:49:14.937Z,10.10
2018-03-28T14:51:43.168Z,10.20
2018-03-28T14:54:11.401Z,10.20
2018-03-28T14:56:39.912Z,10.20
2018-03-28T14:59:08.933Z,10.20
2018-03-28T15:01:37.172Z,10.10
2018-03-28T15:04:05.740Z,10.10
2018-03-28T15:06:33.976Z,10.00
2018-03-28T15:09:02.216Z,10.00
2018-03-28T15:11:31.623Z,10.00
2018-03-28T15:13:59.864Z,10.00
2018-03-28T15:16:28.860Z,10.00
2018-03-28T15:18:58.262Z,10.00
2018-03-28T15:21:28.000Z,9.90
2018-03-28T15:23:56.354Z,9.90
2018-03-28T15:26:26.244Z,9.80
2018-03-28T15:28:54.429Z,9.80
2018-03-28T15:31:23.093Z,9.80
2018-03-28T15:33:52.124Z,9.80
2018-03-28T15:36:21.137Z,9.80
2018-03-28T15:38:49.764Z,9.90
2018-03-28T15:41:19.216Z,10.00
2018-03-28T15:43:47.459Z,10.00
2018-03-28T15:46:15.696Z,10.00
2018-03-28T15:48:44.538Z,10.00
2018-03-28T15:51:13.168Z,10.00
2018-03-28T15:53:41.409Z,10.10
2018-03-28T15:56:10.158Z,10.10
2018-03-28T15:58:38.432Z,10.10
2018-03-28T16:01:06.689Z,10.20
2018-03-28T16:03:35.885Z,10.20
2018-03-28T16:06:04.891Z,10.30
2018-03-28T16:08:33.174Z,10.30
2018-03-28T16:11:02.161Z,10.30
2018-03-28T16:13:31.915Z,10.20
2018-03-28T16:16:00.144Z,10.10
2018-03-28T16:18:29.436Z,10.10
2018-03-28T16:20:58.440Z,10.10
2018-03-28T16:23:27.443Z,10.10
2018-03-28T16:25:56.859Z,10.00
2018-03-28T16:28:27.036Z,10.20
2018-03-28T16:30:55.272Z,10.20
2018-03-28T16:33:23.849Z,10.30
2018-03-28T16:35:52.088Z,10.30
2018-03-28T16:40:50.217Z,10.30
2018-03-28T16:43:19.624Z,10.40
2018-03-28T16:48:18.016Z,10.50
2018-03-28T16:50:46.707Z,10.60
2018-03-28T16:53:15.732Z,10.60
2018-03-28T16:55:44.448Z,10.60
2018-03-28T16:58:12.725Z,10.60
2018-03-28T17:00:40.940Z,10.50
2018-03-28T17:03:10.357Z,10.50
2018-03-28T17:05:38.685Z,10.50
2018-03-28T17:08:07.698Z,10.60
2018-03-28T17:10:36.212Z,10.50
2018-03-28T17:13:04.839Z,10.50
2018-03-28T17:15:33.082Z,10.50
2018-03-28T17:18:01.449Z,10.50
2018-03-28T17:20:29.684Z,10.50
2018-03-28T17:22:59.055Z,10.40
2018-03-28T17:25:27.368Z,10.50
2018-03-28T17:27:56.384Z,10.50
2018-03-28T17:30:24.630Z,10.60
2018-03-28T17:32:54.192Z,10.60
2018-03-28T17:35:22.433Z,10.60
2018-03-28T17:37:50.677Z,10.50
2018-03-28T17:40:19.256Z,10.50
2018-03-28T17:42:48.257Z,10.50
2018-03-28T17:45:17.382Z,10.50
2018-03-28T17:47:46.473Z,10.50
2018-03-28T17:50:14.708Z,10.50
2018-03-28T17:52:43.344Z,10.50
2018-03-28T17:55:11.632Z,10.50
2018-03-28T17:57:41.088Z,10.50
2018-03-28T18:00:09.404Z,10.50
2018-03-28T18:02:37.705Z,10.50
2018-03-28T18:07:36.480Z,10.60
2018-03-28T18:10:05.345Z,10.50
2018-03-28T18:12:33.580Z,10.50
2018-03-28T18:15:01.808Z,10.60
2018-03-28T18:17:30.852Z,10.60
2018-03-28T18:22:28.572Z,10.60
2018-03-28T18:24:57.093Z,10.60
2018-03-28T18:27:25.324Z,10.70
2018-03-28T18:29:54.320Z,10.70
2018-03-28T18:32:22.928Z,10.60
2018-03-28T18:37:20.631Z,10.70
2018-03-28T18:39:48.907Z,10.60
2018-03-28T18:42:17.142Z,10.50
2018-03-28T18:44:45.381Z,10.30
2018-03-28T18:47:15.329Z,10.10
2018-03-28T18:49:43.548Z,9.90
2018-03-28T18:52:11.776Z,9.70
2018-03-28T18:54:40.232Z,9.50
2018-03-28T18:57:09.592Z,9.40
2018-03-28T18:59:37.819Z,9.30
2018-03-28T19:02:06.085Z,9.20
2018-03-28T19:04:34.304Z,9.10
2018-03-28T19:07:02.533Z,8.90
2018-03-28T19:09:31.088Z,8.80
2018-03-28T19:12:00.081Z,8.60
2018-03-28T19:14:28.305Z,8.60
2018-03-28T19:16:57.157Z,8.60
2018-03-28T19:19:25.372Z,8.60
2018-03-28T19:21:54.727Z,8.50
2018-03-28T19:24:22.979Z,8.40
2018-03-28T19:26:51.199Z,8.40
2018-03-28T19:29:19.423Z,8.40
2018-03-28T19:31:49.464Z,8.40
2018-03-28T19:34:18.088Z,8.40
2018-03-28T19:36:46.324Z,8.40
2018-03-28T19:39:14.596Z,8.40
2018-03-28T19:41:44.332Z,8.30
2018-03-28T19:44:12.564Z,8.30
2018-03-28T19:49:10.667Z,8.30
2018-03-28T19:51:38.896Z,8.30
2018-03-28T19:54:07.168Z,8.20
2018-03-28T19:56:36.164Z,8.20
2018-03-28T19:59:04.395Z,8.20
2018-03-28T20:01:33.034Z,8.20
2018-03-28T20:04:02.401Z,8.10
2018-03-28T20:06:30.631Z,8.10
2018-03-28T20:08:59.160Z,8.00
2018-03-28T20:11:30.876Z,8.00
2018-03-28T20:14:00.028Z,7.90
2018-03-28T20:16:28.248Z,7.90
2018-03-28T20:18:57.249Z,7.90
2018-03-28T20:21:25.505Z,7.90
2018-03-28T20:23:54.508Z,7.90
2018-03-28T20:26:23.508Z,7.90
2018-03-28T20:28:52.069Z,7.90
2018-03-28T20:33:49.770Z,7.80
2018-03-28T20:36:18.059Z,7.80
2018-03-28T20:38:46.694Z,7.80
2018-03-28T20:41:14.916Z,7.80
2018-03-28T20:43:43.190Z,7.70
2018-03-28T20:46:11.430Z,7.60
2018-03-28T20:48:39.653Z,7.50
